Terminal Aerodrome Forecast
Issued by NWS

Home | Current Version | Previous Version | Text Only | Print | Product List | Glossary On
Versions: 1 2 3 4 5 6 7 8 9 10 11 12 13 14 15 16 17 18 19 20 21
529
FTUS41 KBGM 301126
TAFELM
TAF
KELM 301126Z 3012/0112 13005KT P6SM -SHRA OVC060
     FM301600 08006KT P6SM -SHRA OVC035
      TEMPO 3016/3020 BKN025
     FM302000 07007KT P6SM -SHRA OVC015
     FM010100 08006KT P6SM OVC007=

USA.gov is the U.S. government's official web portal to all federal, state and local government web resources and services.